createdAt,value
2022-08-20T00:01:19.100Z,86.80
2022-08-20T00:03:50.131Z,85.90
2022-08-20T00:06:23.208Z,86.10
2022-08-20T00:08:53.163Z,86.30
2022-08-20T00:11:29.064Z,86.00
2022-08-20T00:13:59.658Z,85.70
2022-08-20T00:16:32.890Z,85.60
2022-08-20T00:19:01.204Z,85.80
2022-08-20T00:21:28.495Z,85.60
2022-08-20T00:24:01.533Z,85.20
2022-08-20T00:26:28.939Z,85.50
2022-08-20T00:28:58.005Z,85.50
2022-08-20T00:31:25.805Z,85.60
2022-08-20T00:33:55.938Z,85.40
2022-08-20T00:36:32.487Z,85.10
2022-08-20T00:38:59.945Z,84.90
2022-08-20T00:41:27.897Z,84.70
2022-08-20T00:44:16.064Z,84.70
2022-08-20T00:46:44.554Z,84.70
2022-08-20T00:49:25.766Z,84.60
2022-08-20T00:52:05.223Z,84.80
2022-08-20T00:54:40.001Z,84.80
2022-08-20T00:57:43.872Z,84.70
2022-08-20T01:00:31.908Z,84.40
2022-08-20T01:03:00.625Z,84.80
2022-08-20T01:05:29.613Z,84.90
2022-08-20T01:07:57.671Z,84.80
2022-08-20T01:10:35.105Z,84.90
2022-08-20T01:13:10.085Z,85.00
2022-08-20T01:15:43.214Z,84.60
2022-08-20T01:18:16.514Z,84.60
2022-08-20T01:20:53.068Z,84.30
2022-08-20T01:23:43.591Z,83.80
2022-08-20T01:26:34.655Z,83.80
2022-08-20T01:29:11.076Z,83.70
2022-08-20T01:31:40.143Z,83.80
2022-08-20T01:34:10.833Z,83.30
2022-08-20T01:36:46.410Z,83.50
2022-08-20T01:39:18.391Z,83.70
2022-08-20T01:42:12.870Z,83.20
2022-08-20T01:44:42.595Z,83.70
2022-08-20T01:47:18.930Z,83.50
2022-08-20T01:49:55.546Z,83.10
2022-08-20T01:52:35.798Z,82.90
2022-08-20T01:55:03.736Z,83.10
2022-08-20T01:57:30.681Z,83.10
2022-08-20T01:59:57.546Z,83.10
2022-08-20T02:02:26.707Z,83.00
2022-08-20T02:04:54.172Z,82.90
2022-08-20T02:07:23.668Z,82.90
2022-08-20T02:09:51.596Z,82.90
2022-08-20T02:12:19.309Z,82.80
2022-08-20T02:14:52.252Z,82.30
2022-08-20T02:17:22.843Z,82.30
2022-08-20T02:19:55.058Z,82.50
2022-08-20T02:22:39.737Z,82.80
2022-08-20T02:25:14.788Z,82.70
2022-08-20T02:27:44.280Z,82.30
2022-08-20T02:30:24.788Z,82.00
2022-08-20T02:32:57.170Z,82.30
2022-08-20T02:35:25.501Z,82.30
2022-08-20T02:37:53.761Z,82.30
2022-08-20T02:40:30.451Z,81.70
2022-08-20T02:43:01.581Z,82.40
2022-08-20T02:45:37.398Z,81.90
2022-08-20T02:48:07.552Z,82.20
2022-08-20T02:50:35.129Z,82.40
2022-08-20T02:53:02.448Z,81.70
2022-08-20T02:55:29.767Z,82.10
2022-08-20T02:57:59.336Z,82.00
2022-08-20T03:00:32.141Z,82.70
2022-08-20T03:03:05.522Z,81.70
2022-08-20T03:05:32.788Z,82.00
2022-08-20T03:07:59.946Z,81.80
2022-08-20T03:10:30.938Z,81.60
2022-08-20T03:13:00.925Z,81.90
2022-08-20T03:15:28.363Z,82.00
2022-08-20T03:17:55.374Z,82.20
2022-08-20T03:20:24.013Z,81.70
2022-08-20T03:22:51.888Z,82.10
2022-08-20T03:25:19.282Z,82.60
2022-08-20T03:27:47.242Z,82.90
2022-08-20T03:30:21.025Z,83.00
2022-08-20T03:32:48.005Z,83.30
2022-08-20T03:35:17.707Z,83.70
2022-08-20T03:37:56.214Z,83.30
2022-08-20T03:40:35.157Z,83.40
2022-08-20T03:43:06.647Z,83.80
2022-08-20T03:45:33.549Z,83.60
2022-08-20T03:48:01.695Z,83.70
2022-08-20T03:50:29.718Z,84.10
2022-08-20T03:52:57.736Z,84.20
2022-08-20T03:55:25.391Z,84.20
2022-08-20T03:57:56.070Z,84.10
2022-08-20T04:00:29.951Z,84.60
2022-08-20T04:02:59.404Z,84.60
2022-08-20T04:05:30.987Z,84.40
2022-08-20T04:08:03.264Z,85.20
2022-08-20T04:10:31.837Z,85.40
2022-08-20T04:12:58.591Z,85.40
2022-08-20T04:15:26.832Z,86.00
2022-08-20T04:17:56.272Z,86.10
2022-08-20T04:20:25.995Z,86.10
2022-08-20T04:22:58.491Z,85.90
2022-08-20T04:25:35.889Z,85.10
2022-08-20T04:28:05.983Z,85.00
2022-08-20T04:30:35.387Z,84.40
2022-08-20T04:33:02.390Z,84.40
2022-08-20T04:35:32.723Z,84.60
2022-08-20T04:38:06.775Z,84.30
2022-08-20T04:40:53.494Z,83.60
2022-08-20T04:43:23.325Z,83.70
2022-08-20T04:45:53.809Z,83.40
2022-08-20T04:48:24.023Z,83.40
2022-08-20T04:50:54.807Z,83.10
2022-08-20T04:53:25.978Z,83.00
2022-08-20T04:55:57.061Z,83.00
2022-08-20T04:58:33.598Z,83.40
2022-08-20T05:01:04.074Z,83.10
2022-08-20T05:03:31.664Z,83.70
2022-08-20T05:06:01.836Z,83.90
2022-08-20T05:08:29.860Z,83.80
2022-08-20T05:11:30.143Z,84.50
2022-08-20T05:13:45.221Z,84.90
2022-08-20T05:16:12.524Z,84.90
2022-08-20T05:18:39.447Z,85.10
2022-08-20T05:21:06.485Z,84.80
2022-08-20T05:23:36.097Z,84.40
2022-08-20T05:26:09.140Z,84.40
2022-08-20T05:28:53.888Z,84.70
2022-08-20T05:31:31.001Z,84.60
2022-08-20T05:34:12.152Z,85.20
2022-08-20T05:36:42.409Z,85.50
2022-08-20T05:39:10.525Z,85.50
2022-08-20T05:41:38.482Z,85.20
2022-08-20T05:44:09.930Z,85.40
2022-08-20T05:46:40.759Z,85.00
2022-08-20T05:49:09.312Z,85.50
2022-08-20T05:51:37.093Z,85.90
2022-08-20T05:54:05.934Z,86.00
2022-08-20T05:56:33.963Z,86.20
2022-08-20T05:59:05.642Z,86.60
2022-08-20T06:01:34.840Z,86.20
2022-08-20T06:04:20.656Z,86.90
2022-08-20T06:06:51.734Z,86.70
2022-08-20T06:09:30.936Z,87.10
2022-08-20T06:12:00.758Z,87.00
2022-08-20T06:14:27.593Z,88.50
2022-08-20T06:16:57.614Z,87.50
2022-08-20T06:19:26.880Z,87.00
2022-08-20T06:21:54.700Z,87.40
2022-08-20T06:24:22.007Z,87.50
2022-08-20T06:26:55.194Z,87.90
2022-08-20T06:29:22.133Z,87.90
2022-08-20T06:31:49.465Z,88.10
2022-08-20T06:34:16.725Z,86.80
2022-08-20T06:36:46.390Z,87.50
2022-08-20T06:39:15.430Z,87.90
2022-08-20T06:41:42.951Z,88.00
2022-08-20T06:44:10.207Z,88.10
2022-08-20T06:46:39.049Z,87.90
2022-08-20T06:49:08.658Z,87.60
2022-08-20T06:51:37.455Z,86.20
2022-08-20T06:54:07.405Z,87.50
2022-08-20T06:56:34.784Z,87.90
2022-08-20T06:59:04.467Z,87.60
2022-08-20T07:01:31.338Z,86.90
2022-08-20T07:03:59.697Z,87.20
2022-08-20T07:06:27.090Z,86.30
2022-08-20T07:08:55.749Z,85.00
2022-08-20T07:11:27.731Z,85.20
2022-08-20T07:13:56.834Z,84.80
2022-08-20T07:16:24.206Z,86.20
2022-08-20T07:18:51.069Z,86.10
2022-08-20T07:21:17.898Z,86.80
2022-08-20T07:23:45.638Z,85.40
2022-08-20T07:26:15.413Z,85.60
2022-08-20T07:28:42.300Z,86.10
2022-08-20T07:31:27.833Z,85.50
2022-08-20T07:33:58.374Z,85.70
2022-08-20T07:36:27.020Z,84.10
2022-08-20T07:38:54.419Z,84.30
2022-08-20T07:41:21.367Z,85.10
2022-08-20T07:43:49.090Z,84.50
2022-08-20T07:46:20.853Z,84.00
2022-08-20T07:48:50.238Z,84.00
2022-08-20T07:51:22.368Z,82.80
2022-08-20T07:53:51.490Z,82.90
2022-08-20T07:56:21.632Z,83.20
2022-08-20T07:58:53.250Z,82.90
2022-08-20T08:01:28.465Z,82.50
2022-08-20T08:03:57.598Z,82.20
2022-08-20T08:06:30.258Z,82.10
2022-08-20T08:09:13.130Z,83.00
2022-08-20T08:11:47.568Z,82.50
2022-08-20T08:14:17.579Z,82.40
2022-08-20T08:16:45.464Z,82.30
2022-08-20T08:19:14.789Z,82.90
2022-08-20T08:21:44.882Z,83.10
2022-08-20T08:24:20.290Z,82.80
2022-08-20T08:26:50.136Z,82.70
2022-08-20T08:29:17.247Z,82.20
2022-08-20T08:31:44.352Z,82.10
2022-08-20T08:34:11.634Z,81.30
2022-08-20T08:36:39.332Z,83.20
2022-08-20T08:39:06.712Z,82.70
2022-08-20T08:41:50.096Z,81.90
2022-08-20T08:44:27.293Z,82.60
2022-08-20T08:46:59.047Z,82.70
2022-08-20T08:49:37.979Z,81.00
2022-08-20T08:52:25.887Z,80.70
2022-08-20T08:54:56.910Z,80.90
2022-08-20T08:57:24.783Z,80.60
2022-08-20T09:00:04.322Z,80.70
2022-08-20T09:02:33.446Z,79.80
2022-08-20T09:05:13.387Z,80.30
2022-08-20T09:07:41.576Z,79.90
2022-08-20T09:10:08.583Z,78.80
2022-08-20T09:12:38.212Z,79.40
2022-08-20T09:15:05.737Z,79.50
2022-08-20T09:17:33.039Z,78.60
2022-08-20T09:20:00.387Z,78.20
2022-08-20T09:22:27.932Z,78.60
2022-08-20T09:24:54.830Z,78.90
2022-08-20T09:27:21.698Z,78.40
2022-08-20T09:29:49.292Z,77.80
2022-08-20T09:32:24.117Z,78.90
2022-08-20T09:34:59.227Z,76.70
2022-08-20T09:37:30.609Z,76.80
2022-08-20T09:40:01.886Z,76.50
2022-08-20T09:42:40.952Z,76.40
2022-08-20T09:45:11.107Z,76.50
2022-08-20T09:47:55.226Z,75.50
2022-08-20T09:50:33.840Z,76.10
2022-08-20T09:53:05.600Z,75.50
2022-08-20T09:55:41.417Z,72.80
2022-08-20T09:58:22.363Z,75.20
2022-08-20T10:00:49.325Z,74.50
2022-08-20T10:03:16.800Z,71.80
2022-08-20T10:05:46.524Z,73.80
2022-08-20T10:08:13.978Z,73.00
2022-08-20T10:10:41.283Z,73.40
2022-08-20T10:13:08.384Z,72.80
2022-08-20T10:15:39.663Z,71.70
2022-08-20T10:18:08.778Z,69.20
2022-08-20T10:20:39.030Z,70.80
2022-08-20T10:23:05.874Z,68.90
2022-08-20T10:25:32.950Z,70.50
2022-08-20T10:27:59.763Z,70.40
2022-08-20T10:30:29.389Z,70.50
2022-08-20T10:32:58.705Z,69.90
2022-08-20T10:35:25.582Z,70.40
2022-08-20T10:37:52.700Z,69.60
2022-08-20T10:40:20.189Z,69.70
2022-08-20T10:42:49.357Z,70.10
2022-08-20T10:45:17.370Z,69.30
2022-08-20T10:47:44.154Z,67.80
2022-08-20T10:50:15.805Z,68.10
2022-08-20T10:52:43.220Z,65.10
2022-08-20T10:55:10.855Z,68.90
2022-08-20T10:57:40.699Z,69.00
2022-08-20T11:00:11.710Z,68.30
2022-08-20T11:02:38.535Z,68.90
2022-08-20T11:05:06.426Z,68.00
2022-08-20T11:07:54.749Z,67.50
2022-08-20T11:10:27.823Z,68.40
2022-08-20T11:12:54.819Z,68.50
2022-08-20T11:15:23.970Z,66.50
2022-08-20T11:17:50.997Z,66.40
2022-08-20T11:20:20.088Z,66.50
2022-08-20T11:22:47.534Z,66.30
2022-08-20T11:25:17.643Z,66.10
2022-08-20T11:27:46.943Z,65.30
2022-08-20T11:30:23.139Z,64.70
2022-08-20T11:32:50.129Z,64.90
2022-08-20T11:38:05.317Z,65.80
2022-08-20T11:40:32.261Z,65.90
2022-08-20T11:43:16.666Z,65.20
2022-08-20T11:45:47.434Z,64.50
2022-08-20T11:48:14.357Z,65.40
2022-08-20T11:50:41.345Z,65.80
2022-08-20T11:53:13.053Z,65.80
2022-08-20T11:55:42.222Z,65.80
2022-08-20T11:58:11.369Z,65.30
2022-08-20T12:00:38.294Z,65.50
2022-08-20T12:03:09.363Z,65.50
2022-08-20T12:05:40.623Z,65.80
2022-08-20T12:08:10.938Z,66.00
2022-08-20T12:11:03.414Z,65.40
2022-08-20T12:13:48.341Z,66.00
2022-08-20T12:16:17.433Z,65.60
2022-08-20T12:18:44.597Z,65.80
2022-08-20T12:21:14.268Z,66.10
2022-08-20T12:23:41.144Z,66.40
2022-08-20T12:26:08.553Z,66.10
2022-08-20T12:28:35.411Z,65.30
2022-08-20T12:31:05.042Z,63.60
2022-08-20T12:33:32.348Z,62.10
2022-08-20T12:35:59.593Z,63.90
2022-08-20T12:38:27.215Z,64.60
2022-08-20T12:40:54.558Z,64.80
2022-08-20T12:43:24.854Z,63.30
2022-08-20T12:45:52.221Z,61.60
2022-08-20T12:48:20.884Z,63.10
2022-08-20T12:50:49.945Z,63.90
2022-08-20T12:53:17.347Z,64.30
2022-08-20T12:55:47.505Z,63.60
2022-08-20T12:58:14.404Z,63.10
2022-08-20T13:00:46.517Z,63.30
2022-08-20T13:03:17.903Z,63.10
2022-08-20T13:05:45.247Z,61.90
2022-08-20T13:08:12.857Z,58.30
2022-08-20T13:10:45.414Z,59.90
2022-08-20T13:13:20.929Z,55.80
2022-08-20T13:15:49.721Z,56.90
2022-08-20T13:18:16.827Z,58.30
2022-08-20T13:20:43.846Z,59.10
2022-08-20T13:23:10.710Z,57.40
2022-08-20T13:25:37.685Z,59.50
2022-08-20T13:28:05.983Z,57.00
2022-08-20T13:30:35.263Z,59.60
2022-08-20T13:33:02.129Z,59.80
2022-08-20T13:35:29.131Z,59.80
2022-08-20T13:37:56.060Z,57.80
2022-08-20T13:40:23.052Z,55.60
2022-08-20T13:42:52.412Z,57.40
2022-08-20T13:45:19.517Z,58.80
2022-08-20T13:47:46.375Z,59.10
2022-08-20T13:50:17.573Z,59.20
2022-08-20T13:52:45.966Z,59.30
2022-08-20T13:55:19.922Z,58.30
2022-08-20T13:57:47.728Z,59.80
2022-08-20T14:00:30.984Z,59.10
2022-08-20T14:02:59.245Z,59.70
2022-08-20T14:05:28.222Z,60.00
2022-08-20T14:07:55.229Z,60.10
2022-08-20T14:10:31.207Z,60.50
2022-08-20T14:12:59.414Z,59.40
2022-08-20T14:15:26.200Z,58.50
2022-08-20T14:17:56.404Z,59.70
2022-08-20T14:20:29.154Z,59.20
2022-08-20T14:22:57.034Z,60.00
2022-08-20T14:25:26.069Z,59.90
2022-08-20T14:27:53.832Z,57.30
2022-08-20T14:30:25.794Z,59.40
2022-08-20T14:32:53.247Z,59.80
2022-08-20T14:35:20.786Z,59.40
2022-08-20T14:37:53.475Z,59.90
2022-08-20T14:40:23.893Z,57.60
2022-08-20T14:42:51.964Z,59.00
2022-08-20T14:45:20.400Z,59.50
2022-08-20T14:47:54.332Z,59.50
2022-08-20T14:50:25.021Z,56.70
2022-08-20T14:52:52.714Z,58.00
2022-08-20T14:55:22.243Z,58.90
2022-08-20T14:57:49.997Z,59.20
2022-08-20T15:00:22.598Z,58.80
2022-08-20T15:02:50.099Z,58.90
2022-08-20T15:05:18.077Z,59.00
2022-08-20T15:07:49.289Z,59.20
2022-08-20T15:10:28.537Z,58.50
2022-08-20T15:12:55.948Z,53.40
2022-08-20T15:15:26.380Z,56.70
2022-08-20T15:17:57.723Z,53.00
2022-08-20T15:20:29.762Z,57.30
2022-08-20T15:23:00.072Z,54.80
2022-08-20T15:25:36.136Z,58.00
2022-08-20T15:28:07.036Z,55.70
2022-08-20T15:30:33.926Z,54.80
2022-08-20T15:33:03.531Z,53.10
2022-08-20T15:35:32.777Z,52.70
2022-08-20T15:38:02.448Z,53.60
2022-08-20T15:40:31.485Z,56.30
2022-08-20T15:43:00.519Z,57.60
2022-08-20T15:45:27.663Z,52.70
2022-08-20T15:48:18.027Z,52.20
2022-08-20T15:50:47.604Z,52.50
2022-08-20T15:53:35.193Z,55.60
2022-08-20T15:56:14.191Z,58.30
2022-08-20T15:59:16.820Z,58.30
2022-08-20T16:01:50.056Z,58.80
2022-08-20T16:04:35.442Z,58.80
2022-08-20T16:07:07.731Z,55.30
2022-08-20T16:09:48.504Z,56.80
2022-08-20T16:12:31.372Z,58.10
2022-08-20T16:15:02.842Z,58.40
2022-08-20T16:17:47.773Z,54.00
2022-08-20T16:20:35.213Z,57.10
2022-08-20T16:23:04.288Z,58.20
2022-08-20T16:25:53.987Z,58.80
2022-08-20T16:28:32.161Z,59.20
2022-08-20T16:31:06.063Z,60.60
2022-08-20T16:33:45.288Z,61.40
2022-08-20T16:36:27.173Z,61.10
2022-08-20T16:38:59.214Z,61.40
2022-08-20T16:41:48.082Z,61.70
2022-08-20T16:44:42.322Z,61.40
2022-08-20T16:47:18.096Z,59.00
2022-08-20T16:49:52.206Z,56.80
2022-08-20T16:52:19.413Z,56.80
2022-08-20T16:54:48.652Z,55.20
2022-08-20T16:57:17.471Z,56.70
2022-08-20T16:59:55.642Z,55.50
2022-08-20T17:02:23.311Z,56.70
2022-08-20T17:04:59.224Z,57.50
2022-08-20T17:07:42.536Z,58.10
2022-08-20T17:10:24.391Z,57.10
2022-08-20T17:13:15.508Z,54.80
2022-08-20T17:15:44.795Z,55.40
2022-08-20T17:18:28.860Z,57.30
2022-08-20T17:21:05.547Z,58.90
2022-08-20T17:23:49.350Z,58.40
2022-08-20T17:26:37.120Z,59.50
2022-08-20T17:29:15.957Z,59.70
2022-08-20T17:31:46.507Z,61.20
2022-08-20T17:34:21.563Z,61.10
2022-08-20T17:37:03.266Z,60.90
2022-08-20T17:39:31.833Z,60.70
2022-08-20T17:42:08.087Z,62.30
2022-08-20T17:44:41.327Z,65.30
2022-08-20T17:47:14.089Z,62.00
2022-08-20T17:50:01.224Z,63.60
2022-08-20T17:52:44.562Z,65.20
2022-08-20T17:55:12.742Z,66.20
2022-08-20T17:57:43.989Z,67.40
2022-08-20T18:00:16.883Z,67.40
2022-08-20T18:02:44.309Z,67.90
2022-08-20T18:05:21.703Z,68.00
2022-08-20T18:07:59.715Z,69.90
2022-08-20T18:10:27.905Z,71.40
2022-08-20T18:13:25.374Z,71.10
2022-08-20T18:15:57.984Z,71.40
2022-08-20T18:18:57.430Z,71.20
2022-08-20T18:22:00.891Z,71.00
2022-08-20T18:24:40.016Z,69.70
2022-08-20T18:27:15.158Z,70.10
2022-08-20T18:29:48.608Z,68.90
2022-08-20T18:32:27.382Z,69.60
2022-08-20T18:34:55.201Z,69.30
2022-08-20T18:37:27.649Z,68.00
2022-08-20T18:40:15.514Z,67.90
2022-08-20T18:42:43.253Z,69.00
2022-08-20T18:45:10.716Z,69.60
2022-08-20T18:47:45.225Z,70.00
2022-08-20T18:50:18.121Z,70.40
2022-08-20T18:52:51.310Z,71.60
2022-08-20T18:55:42.775Z,72.10
2022-08-20T18:58:34.092Z,73.10
2022-08-20T19:01:05.913Z,73.40
2022-08-20T19:03:35.790Z,73.80
2022-08-20T19:06:24.895Z,73.70
2022-08-20T19:09:20.968Z,74.10
2022-08-20T19:12:09.303Z,74.60
2022-08-20T19:15:03.444Z,75.20
2022-08-20T19:17:39.925Z,75.00
2022-08-20T19:20:20.855Z,75.40
2022-08-20T19:22:50.468Z,75.10
2022-08-20T19:25:42.778Z,74.80
2022-08-20T19:28:29.937Z,73.30
2022-08-20T19:31:08.052Z,73.20
2022-08-20T19:33:44.143Z,73.40
2022-08-20T19:36:22.443Z,73.20
2022-08-20T19:39:00.762Z,73.00
2022-08-20T19:41:41.300Z,72.70
2022-08-20T19:44:08.154Z,72.40
2022-08-20T19:46:43.844Z,72.70
2022-08-20T19:49:37.182Z,72.90
2022-08-20T19:52:13.464Z,73.10
2022-08-20T19:54:50.921Z,73.00
2022-08-20T19:57:20.176Z,73.00
2022-08-20T20:00:07.813Z,73.20
2022-08-20T20:02:35.364Z,72.90
2022-08-20T20:05:10.129Z,72.90
2022-08-20T20:07:49.352Z,73.10
2022-08-20T20:10:32.637Z,72.60
2022-08-20T20:13:12.270Z,72.50
2022-08-20T20:15:40.167Z,72.80
2022-08-20T20:18:11.411Z,73.10
2022-08-20T20:20:57.821Z,73.10
2022-08-20T20:23:38.570Z,72.90
2022-08-20T20:26:19.887Z,73.40
2022-08-20T20:29:11.015Z,73.90
2022-08-20T20:31:50.570Z,73.70
2022-08-20T20:34:24.972Z,74.60
2022-08-20T20:37:06.844Z,74.30
2022-08-20T20:39:45.214Z,74.30
2022-08-20T20:42:25.998Z,74.20
2022-08-20T20:44:54.386Z,73.10
2022-08-20T20:47:26.559Z,73.60
2022-08-20T20:50:06.601Z,74.00
2022-08-20T20:52:48.521Z,74.10
2022-08-20T20:55:23.411Z,73.50
2022-08-20T20:57:52.616Z,73.60
2022-08-20T21:00:22.677Z,74.00
2022-08-20T21:02:49.543Z,73.70
2022-08-20T21:05:19.709Z,73.80
2022-08-20T21:08:00.994Z,73.70
2022-08-20T21:10:34.968Z,73.90
2022-08-20T21:13:04.732Z,74.20
2022-08-20T21:15:42.715Z,74.50
2022-08-20T21:18:11.470Z,74.70
2022-08-20T21:20:38.878Z,74.40
2022-08-20T21:23:08.308Z,74.80
2022-08-20T21:25:36.709Z,74.60
2022-08-20T21:28:04.680Z,74.80
2022-08-20T21:30:32.297Z,74.80
2022-08-20T21:32:59.789Z,74.70
2022-08-20T21:35:27.696Z,74.70
2022-08-20T21:37:57.054Z,75.40
2022-08-20T21:40:24.455Z,75.20
2022-08-20T21:42:55.829Z,75.10
2022-08-20T21:45:22.894Z,75.10
2022-08-20T21:47:55.715Z,75.40
2022-08-20T21:50:22.923Z,75.20
2022-08-20T21:52:55.133Z,75.00
2022-08-20T21:55:28.689Z,74.80
2022-08-20T21:57:55.684Z,74.70
2022-08-20T22:00:47.545Z,74.60
2022-08-20T22:03:15.635Z,75.30
2022-08-20T22:05:43.132Z,74.80
2022-08-20T22:08:10.747Z,75.10
2022-08-20T22:10:38.385Z,75.00
2022-08-20T22:13:05.917Z,75.00
2022-08-20T22:15:35.859Z,75.00
2022-08-20T22:18:02.895Z,75.00
2022-08-20T22:20:30.301Z,75.50
2022-08-20T22:22:57.270Z,75.60
2022-08-20T22:25:24.130Z,76.10
2022-08-20T22:27:51.481Z,75.90
2022-08-20T22:30:18.843Z,75.80
2022-08-20T22:32:52.113Z,75.80
2022-08-20T22:35:21.907Z,75.70
2022-08-20T22:37:48.775Z,75.90
2022-08-20T22:40:16.171Z,75.60
2022-08-20T22:42:43.062Z,75.80
2022-08-20T22:45:13.464Z,76.20
2022-08-20T22:47:43.666Z,76.00
2022-08-20T22:50:12.341Z,76.40
2022-08-20T22:52:40.326Z,76.30
2022-08-20T22:55:10.273Z,76.60
2022-08-20T22:57:37.881Z,76.40
2022-08-20T23:00:11.291Z,76.40
2022-08-20T23:02:39.423Z,76.40
2022-08-20T23:05:12.454Z,76.50
2022-08-20T23:07:40.257Z,77.10
2022-08-20T23:10:07.345Z,76.80
2022-08-20T23:12:34.266Z,77.30
2022-08-20T23:15:01.133Z,76.90
2022-08-20T23:17:28.212Z,76.90
2022-08-20T23:19:55.022Z,77.10
2022-08-20T23:22:22.243Z,76.80
2022-08-20T23:24:49.257Z,76.80
2022-08-20T23:27:18.660Z,77.10
2022-08-20T23:29:46.606Z,77.40
2022-08-20T23:32:13.733Z,77.50
2022-08-20T23:34:40.577Z,77.50
2022-08-20T23:37:08.383Z,78.00
2022-08-20T23:39:35.351Z,77.70
2022-08-20T23:42:03.380Z,77.90
2022-08-20T23:44:30.261Z,77.60
2022-08-20T23:47:02.969Z,77.30
2022-08-20T23:49:31.723Z,77.10
2022-08-20T23:52:01.818Z,77.60
2022-08-20T23:54:30.191Z,77.80
2022-08-20T23:56:57.640Z,78.00
2022-08-20T23:59:25.162Z,77.60
